createdAt,value
2017-10-29T00:04:58.289Z,97988.26
2017-10-29T00:25:36.739Z,97996.20
2017-10-29T00:46:10.675Z,97947.28
2017-10-29T01:06:42.882Z,97889.17
2017-10-29T01:27:15.077Z,97849.56
2017-10-29T01:47:53.421Z,97820.03
2017-10-29T02:08:32.988Z,97744.64
2017-10-29T02:29:05.806Z,97737.55
2017-10-29T02:49:44.152Z,97698.40
2017-10-29T03:10:24.031Z,97672.42
2017-10-29T03:31:01.454Z,97645.63
2017-10-29T03:51:34.882Z,97633.89
2017-10-29T04:12:08.367Z,97645.47
2017-10-29T04:32:41.645Z,97632.00
2017-10-29T04:53:21.807Z,97596.55
2017-10-29T05:13:57.036Z,97597.92
2017-10-29T05:34:32.159Z,97552.09
2017-10-29T05:55:12.343Z,97566.55
2017-10-29T06:15:48.371Z,97577.69
2017-10-29T06:36:29.993Z,97598.05
2017-10-29T06:57:07.416Z,97622.98
2017-10-29T07:17:44.493Z,97682.37
2017-10-29T07:38:22.004Z,97749.93
2017-10-29T07:58:55.036Z,97777.84
2017-10-29T08:19:32.151Z,97832.53
2017-10-29T08:40:03.432Z,97897.47
2017-10-29T09:00:37.775Z,97926.98
2017-10-29T09:21:09.976Z,97933.13
2017-10-29T09:41:46.317Z,97980.31
2017-10-29T10:02:18.373Z,98005.48
2017-10-29T10:22:50.568Z,98049.56
2017-10-29T10:43:26.951Z,98068.27
2017-10-29T11:04:02.960Z,98088.38
2017-10-29T11:24:37.598Z,98132.59
2017-10-29T11:45:08.605Z,98145.26
2017-10-29T12:05:45.851Z,98157.16
2017-10-29T12:26:24.970Z,98142.83
2017-10-29T12:47:08.842Z,98173.83
2017-10-29T13:07:53.768Z,98186.05
2017-10-29T13:28:36.068Z,98221.87
2017-10-29T13:49:14.331Z,98243.46
2017-10-29T14:09:52.591Z,98274.31
2017-10-29T14:30:27.822Z,98299.36
2017-10-29T14:51:07.088Z,98314.37
2017-10-29T15:11:42.166Z,98326.16
2017-10-29T15:32:14.365Z,98352.61
2017-10-29T15:52:49.749Z,98429.52
2017-10-29T16:13:22.962Z,98465.47
2017-10-29T16:33:55.158Z,98478.95
2017-10-29T16:54:28.080Z,98513.70
2017-10-29T17:15:03.598Z,98540.27
2017-10-29T17:35:39.544Z,98556.05
2017-10-29T17:56:16.663Z,98594.10
2017-10-29T18:16:51.011Z,98639.64
2017-10-29T18:37:30.277Z,98639.58
2017-10-29T18:58:07.991Z,98658.16
2017-10-29T19:18:46.658Z,98690.03
2017-10-29T19:39:21.930Z,98695.95
2017-10-29T19:59:54.434Z,98737.89
2017-10-29T20:20:34.633Z,98742.32
2017-10-29T20:41:09.037Z,98743.09
2017-10-29T21:01:43.248Z,98740.36
2017-10-29T21:22:19.211Z,98763.10
2017-10-29T21:42:55.730Z,98770.48
2017-10-29T22:03:28.834Z,98759.11
2017-10-29T22:24:05.947Z,98774.11
2017-10-29T22:44:40.409Z,98787.13
2017-10-29T23:05:16.648Z,98805.30
2017-10-29T23:25:48.847Z,98805.46
2017-10-29T23:46:27.308Z,98816.88
